createdAt,value
2018-12-25T00:01:40.938Z,2.20
2018-12-25T00:04:11.214Z,2.20
2018-12-25T00:06:41.417Z,2.20
2018-12-25T00:09:11.624Z,2.30
2018-12-25T00:11:41.831Z,2.20
2018-12-25T00:14:12.014Z,2.20
2018-12-25T00:16:42.261Z,2.20
2018-12-25T00:19:12.457Z,2.10
2018-12-25T00:21:42.682Z,2.10
2018-12-25T00:24:12.874Z,2.10
2018-12-25T00:26:43.209Z,2.10
2018-12-25T00:29:13.425Z,2.10
2018-12-25T00:31:43.635Z,2.00
2018-12-25T00:34:14.146Z,2.00
2018-12-25T00:36:43.691Z,2.00
2018-12-25T00:39:13.844Z,1.90
2018-12-25T00:41:44.062Z,1.90
2018-12-25T00:44:14.257Z,1.90
2018-12-25T00:46:44.645Z,1.90
2018-12-25T00:49:15.176Z,1.80
2018-12-25T00:51:45.588Z,1.80
2018-12-25T00:54:15.136Z,1.70
2018-12-25T00:56:44.611Z,1.70
2018-12-25T00:59:14.687Z,1.70
2018-12-25T01:01:44.917Z,1.70
2018-12-25T01:04:14.438Z,1.70
2018-12-25T01:06:44.523Z,1.70
2018-12-25T01:09:14.131Z,1.70
2018-12-25T01:11:44.279Z,1.70
2018-12-25T01:14:15.112Z,1.70
2018-12-25T01:16:44.847Z,1.70
2018-12-25T01:19:23.050Z,1.70
2018-12-25T01:21:46.127Z,1.80
2018-12-25T01:24:16.384Z,1.80
2018-12-25T01:26:46.636Z,1.80
2018-12-25T01:29:16.823Z,1.80
2018-12-25T01:31:47.024Z,1.80
2018-12-25T01:34:17.230Z,1.80
2018-12-25T01:36:47.437Z,1.90
2018-12-25T01:39:17.693Z,1.90
2018-12-25T01:41:47.919Z,1.80
2018-12-25T01:44:18.100Z,1.80
2018-12-25T01:51:47.080Z,2.00
2018-12-25T01:54:17.302Z,2.00
2018-12-25T01:56:47.509Z,1.90
2018-12-25T01:59:17.705Z,1.90
2018-12-25T02:01:47.932Z,1.90
2018-12-25T02:04:18.159Z,1.90
2018-12-25T02:06:48.344Z,1.90
2018-12-25T02:09:18.546Z,1.90
2018-12-25T02:11:48.753Z,1.80
2018-12-25T02:14:18.983Z,1.80
2018-12-25T02:16:49.183Z,1.80
2018-12-25T02:19:19.383Z,1.80
2018-12-25T02:21:49.588Z,1.80
2018-12-25T02:24:19.787Z,1.80
2018-12-25T02:26:50.001Z,1.80
2018-12-25T02:29:20.220Z,1.70
2018-12-25T02:31:50.427Z,1.70
2018-12-25T02:34:20.640Z,1.70
2018-12-25T02:36:50.851Z,1.60
2018-12-25T02:39:21.057Z,1.60
2018-12-25T02:41:51.293Z,1.70
2018-12-25T02:44:21.517Z,1.70
2018-12-25T02:46:51.733Z,1.70
2018-12-25T02:49:21.920Z,1.70
2018-12-25T02:51:52.157Z,1.70
2018-12-25T02:54:22.370Z,1.70
2018-12-25T02:56:52.594Z,1.60
2018-12-25T02:59:22.775Z,1.60
2018-12-25T03:01:53.039Z,1.60
2018-12-25T03:04:23.301Z,1.60
2018-12-25T03:06:53.564Z,1.60
2018-12-25T03:09:23.745Z,1.60
2018-12-25T03:11:54.007Z,1.70
2018-12-25T03:14:24.226Z,1.60
2018-12-25T03:16:54.476Z,1.60
2018-12-25T03:21:54.523Z,1.60
2018-12-25T03:24:24.732Z,1.60
2018-12-25T03:26:54.974Z,1.60
2018-12-25T03:29:25.192Z,1.70
2018-12-25T03:31:55.400Z,1.70
2018-12-25T03:34:25.651Z,1.60
2018-12-25T03:36:55.890Z,1.60
2018-12-25T03:39:26.104Z,1.70
2018-12-25T03:41:56.506Z,1.70
2018-12-25T03:44:26.722Z,1.70
2018-12-25T03:46:56.969Z,1.70
2018-12-25T03:49:27.182Z,1.70
2018-12-25T03:51:57.519Z,1.70
2018-12-25T03:54:27.722Z,1.70
2018-12-25T03:56:57.971Z,1.70
2018-12-25T03:59:28.173Z,1.70
2018-12-25T04:01:58.480Z,1.70
2018-12-25T04:04:28.688Z,1.70
2018-12-25T04:06:58.906Z,1.60
2018-12-25T04:09:29.121Z,1.60
2018-12-25T04:11:59.361Z,1.60
2018-12-25T04:14:29.569Z,1.60
2018-12-25T04:16:59.799Z,1.60
2018-12-25T04:19:30.003Z,1.60
2018-12-25T04:22:00.237Z,1.60
2018-12-25T04:24:30.446Z,1.60
2018-12-25T04:27:00.671Z,1.60
2018-12-25T04:29:30.968Z,1.70
2018-12-25T04:32:01.196Z,1.60
2018-12-25T04:34:31.427Z,1.70
2018-12-25T04:37:01.647Z,1.70
2018-12-25T04:39:31.913Z,1.70
2018-12-25T04:42:02.174Z,1.70
2018-12-25T04:47:02.219Z,1.70
2018-12-25T04:49:32.438Z,1.80
2018-12-25T04:52:02.675Z,1.80
2018-12-25T04:54:32.934Z,1.80
2018-12-25T04:57:03.118Z,1.70
2018-12-25T04:59:33.316Z,1.70
2018-12-25T05:02:03.559Z,1.70
2018-12-25T05:04:33.798Z,1.70
2018-12-25T05:07:04.038Z,1.70
2018-12-25T05:09:34.252Z,1.70
2018-12-25T05:12:04.501Z,1.70
2018-12-25T05:14:34.702Z,1.70
2018-12-25T05:17:04.946Z,1.70
2018-12-25T05:19:35.153Z,1.70
2018-12-25T05:22:05.386Z,1.70
2018-12-25T05:24:35.614Z,1.70
2018-12-25T05:27:05.840Z,1.70
2018-12-25T05:29:36.048Z,1.70
2018-12-25T05:32:06.302Z,1.70
2018-12-25T05:34:36.533Z,1.70
2018-12-25T05:37:06.746Z,1.70
2018-12-25T05:39:36.936Z,1.70
2018-12-25T05:42:07.141Z,1.70
2018-12-25T05:44:37.369Z,1.70
2018-12-25T05:47:07.610Z,1.70
2018-12-25T05:49:37.801Z,1.70
2018-12-25T05:52:08.045Z,1.70
2018-12-25T05:54:38.248Z,1.70
2018-12-25T05:57:08.470Z,1.70
2018-12-25T05:59:37.943Z,1.70
2018-12-25T06:02:08.038Z,1.70
2018-12-25T06:04:38.226Z,1.60
2018-12-25T06:07:08.485Z,1.90
2018-12-25T06:09:38.681Z,1.60
2018-12-25T06:12:08.909Z,1.60
2018-12-25T06:14:39.092Z,1.70
2018-12-25T06:17:09.337Z,1.70
2018-12-25T06:19:39.545Z,1.70
2018-12-25T06:22:09.755Z,1.70
2018-12-25T06:24:39.964Z,1.70
2018-12-25T06:27:10.183Z,1.70
2018-12-25T06:29:40.387Z,1.60
2018-12-25T06:32:10.665Z,1.60
2018-12-25T06:39:40.569Z,1.80
2018-12-25T06:42:10.791Z,1.80
2018-12-25T06:44:40.993Z,1.70
2018-12-25T06:47:11.278Z,1.70
2018-12-25T06:49:41.450Z,1.70
2018-12-25T06:52:11.687Z,1.70
2018-12-25T06:54:41.930Z,1.70
2018-12-25T06:57:12.163Z,1.70
2018-12-25T06:59:42.379Z,1.70
2018-12-25T07:02:12.605Z,1.70
2018-12-25T07:04:42.837Z,1.70
2018-12-25T07:07:13.061Z,1.70
2018-12-25T07:09:43.300Z,1.70
2018-12-25T07:12:13.533Z,1.70
2018-12-25T07:14:43.725Z,1.70
2018-12-25T07:17:13.947Z,1.60
2018-12-25T07:19:44.146Z,1.70
2018-12-25T07:22:14.360Z,1.70
2018-12-25T07:24:44.572Z,1.70
2018-12-25T07:27:14.794Z,1.70
2018-12-25T07:29:45.038Z,1.70
2018-12-25T07:32:15.270Z,1.70
2018-12-25T07:34:45.520Z,1.70
2018-12-25T07:37:15.731Z,1.70
2018-12-25T07:39:45.945Z,1.70
2018-12-25T07:42:16.171Z,1.70
2018-12-25T07:44:46.449Z,1.70
2018-12-25T07:47:16.709Z,1.70
2018-12-25T07:49:46.934Z,1.70
2018-12-25T07:57:16.775Z,2.50
2018-12-25T07:59:46.986Z,1.90
2018-12-25T08:02:17.250Z,1.90
2018-12-25T08:04:47.453Z,1.90
2018-12-25T08:07:17.691Z,1.90
2018-12-25T08:09:47.937Z,1.90
2018-12-25T08:12:18.155Z,1.90
2018-12-25T08:17:18.201Z,1.90
2018-12-25T08:19:48.407Z,1.90
2018-12-25T08:22:18.656Z,2.00
2018-12-25T08:24:48.884Z,2.00
2018-12-25T08:27:19.160Z,2.00
2018-12-25T08:29:49.370Z,2.00
2018-12-25T08:32:19.599Z,2.10
2018-12-25T08:34:49.815Z,2.10
2018-12-25T08:37:20.054Z,2.10
2018-12-25T08:39:50.291Z,2.10
2018-12-25T08:42:20.581Z,2.10
2018-12-25T08:47:20.782Z,2.10
2018-12-25T08:49:51.058Z,2.10
2018-12-25T08:52:21.600Z,2.10
2018-12-25T08:59:52.937Z,2.30
2018-12-25T09:02:23.173Z,2.30
2018-12-25T09:04:53.360Z,2.30
2018-12-25T09:07:23.609Z,2.30
2018-12-25T09:09:53.829Z,2.30
2018-12-25T09:12:24.060Z,2.20
2018-12-25T09:14:54.273Z,2.20
2018-12-25T09:17:24.511Z,2.20
2018-12-25T09:19:54.765Z,2.20
2018-12-25T09:22:25.025Z,2.20
2018-12-25T09:24:55.247Z,2.30
2018-12-25T09:27:25.473Z,2.30
2018-12-25T09:29:55.696Z,2.40
2018-12-25T09:32:25.942Z,2.50
2018-12-25T09:37:26.034Z,2.70
2018-12-25T09:39:56.324Z,2.50
2018-12-25T09:44:56.384Z,2.50
2018-12-25T09:47:26.633Z,2.50
2018-12-25T09:49:56.901Z,2.60
2018-12-25T09:52:27.149Z,2.60
2018-12-25T09:54:57.385Z,2.60
2018-12-25T09:57:27.601Z,2.60
2018-12-25T09:59:57.811Z,2.60
2018-12-25T10:02:28.017Z,2.60
2018-12-25T10:04:58.216Z,2.70
2018-12-25T10:07:28.449Z,2.70
2018-12-25T10:09:58.650Z,2.70
2018-12-25T10:12:28.878Z,2.70
2018-12-25T10:14:59.085Z,2.70
2018-12-25T10:17:29.298Z,2.60
2018-12-25T10:19:59.675Z,2.70
2018-12-25T10:22:29.891Z,2.60
2018-12-25T10:25:00.161Z,2.70
2018-12-25T10:27:29.645Z,2.60
2018-12-25T10:29:59.003Z,2.60
2018-12-25T10:32:28.370Z,2.60
2018-12-25T10:34:57.727Z,2.60
2018-12-25T10:37:27.058Z,2.60
2018-12-25T10:39:57.139Z,2.60
2018-12-25T10:42:26.713Z,2.60
2018-12-25T10:44:56.789Z,2.70
2018-12-25T10:47:26.277Z,2.70
2018-12-25T10:49:56.366Z,2.80
2018-12-25T10:57:25.515Z,3.10
2018-12-25T10:59:55.020Z,3.00
2018-12-25T11:02:24.357Z,2.90
2018-12-25T11:04:53.796Z,2.90
2018-12-25T11:07:23.202Z,2.80
2018-12-25T11:09:53.299Z,2.90
2018-12-25T11:12:22.893Z,2.90
2018-12-25T11:14:52.334Z,2.80
2018-12-25T11:17:21.689Z,3.40
2018-12-25T11:19:51.014Z,2.90
2018-12-25T11:22:20.384Z,2.80
2018-12-25T11:24:49.814Z,2.90
2018-12-25T11:27:19.170Z,2.90
2018-12-25T11:29:48.542Z,3.00
2018-12-25T11:32:18.700Z,3.00
2018-12-25T11:34:48.909Z,3.10
2018-12-25T11:37:19.127Z,3.10
2018-12-25T11:39:49.741Z,3.10
2018-12-25T11:42:20.054Z,3.20
2018-12-25T11:44:49.562Z,3.20
2018-12-25T11:47:19.644Z,3.20
2018-12-25T11:49:49.147Z,3.20
2018-12-25T11:52:18.576Z,3.30
2018-12-25T11:54:48.659Z,3.30
2018-12-25T11:57:18.871Z,3.30
2018-12-25T11:59:49.176Z,3.30
2018-12-25T12:02:18.657Z,3.30
2018-12-25T12:04:48.036Z,3.40
2018-12-25T12:07:17.474Z,3.40
2018-12-25T12:09:46.836Z,3.40
2018-12-25T12:12:16.193Z,3.40
2018-12-25T12:14:45.559Z,3.40
2018-12-25T12:17:14.894Z,3.40
2018-12-25T12:19:44.262Z,3.40
2018-12-25T12:22:13.604Z,3.40
2018-12-25T12:24:43.078Z,3.40
2018-12-25T12:27:12.405Z,3.50
2018-12-25T12:29:41.748Z,3.50
2018-12-25T12:32:11.105Z,3.50
2018-12-25T12:34:40.439Z,3.60
2018-12-25T12:37:09.774Z,3.60
2018-12-25T12:39:39.158Z,4.10
2018-12-25T12:42:08.511Z,3.60
2018-12-25T12:44:37.866Z,3.70
2018-12-25T12:47:07.214Z,3.70
2018-12-25T12:49:36.581Z,3.80
2018-12-25T12:52:05.924Z,3.80
2018-12-25T12:54:35.267Z,3.80
2018-12-25T12:57:05.150Z,3.90
2018-12-25T12:59:34.503Z,3.90
2018-12-25T13:02:03.851Z,3.90
2018-12-25T13:04:33.235Z,4.00
2018-12-25T13:07:02.650Z,4.00
2018-12-25T13:09:32.062Z,4.00
2018-12-25T13:12:01.435Z,4.00
2018-12-25T13:14:30.762Z,4.00
2018-12-25T13:17:00.237Z,4.00
2018-12-25T13:19:29.616Z,4.00
2018-12-25T13:21:58.963Z,4.00
2018-12-25T13:24:28.317Z,4.00
2018-12-25T13:26:57.680Z,4.00
2018-12-25T13:29:27.045Z,4.00
2018-12-25T13:31:56.383Z,4.00
2018-12-25T13:34:25.746Z,4.00
2018-12-25T13:36:55.288Z,3.90
2018-12-25T13:39:24.660Z,3.90
2018-12-25T13:41:54.020Z,3.80
2018-12-25T13:44:23.376Z,3.80
2018-12-25T13:46:52.763Z,3.80
2018-12-25T13:49:22.088Z,3.80
2018-12-25T13:51:51.449Z,3.80
2018-12-25T13:54:20.822Z,3.80
2018-12-25T13:56:50.161Z,3.90
2018-12-25T13:59:19.544Z,3.90
2018-12-25T14:01:48.947Z,3.90
2018-12-25T14:04:18.308Z,3.90
2018-12-25T14:06:47.889Z,3.90
2018-12-25T14:09:17.370Z,3.90
2018-12-25T14:11:46.800Z,3.90
2018-12-25T14:14:16.165Z,3.90
2018-12-25T14:16:45.513Z,3.90
2018-12-25T14:19:14.922Z,3.90
2018-12-25T14:21:44.299Z,3.90
2018-12-25T14:24:13.781Z,3.90
2018-12-25T14:26:43.189Z,3.90
2018-12-25T14:29:12.529Z,3.90
2018-12-25T14:31:41.887Z,4.00
2018-12-25T14:34:11.237Z,4.00
2018-12-25T14:36:40.593Z,3.90
2018-12-25T14:39:09.947Z,3.90
2018-12-25T14:41:39.413Z,3.90
2018-12-25T14:44:08.745Z,3.90
2018-12-25T14:46:38.091Z,3.90
2018-12-25T14:49:07.465Z,3.90
2018-12-25T14:51:37.257Z,3.90
2018-12-25T14:54:06.606Z,3.90
2018-12-25T14:56:35.960Z,3.90
2018-12-25T14:59:05.307Z,3.80
2018-12-25T15:01:34.638Z,3.80
2018-12-25T15:04:04.014Z,3.80
2018-12-25T15:06:33.368Z,3.70
2018-12-25T15:09:04.332Z,3.80
2018-12-25T15:11:33.729Z,3.70
2018-12-25T15:14:03.068Z,3.70
2018-12-25T15:16:32.484Z,3.70
2018-12-25T15:19:01.821Z,3.70
2018-12-25T15:21:31.181Z,3.70
2018-12-25T15:24:00.544Z,3.70
2018-12-25T15:26:30.103Z,3.80
2018-12-25T15:28:59.423Z,3.80
2018-12-25T15:31:28.768Z,3.70
2018-12-25T15:33:58.139Z,3.70
2018-12-25T15:36:27.534Z,3.70
2018-12-25T15:38:56.896Z,3.70
2018-12-25T15:41:26.236Z,3.70
2018-12-25T15:43:55.625Z,3.70
2018-12-25T15:46:24.964Z,3.70
2018-12-25T15:48:54.308Z,3.70
2018-12-25T15:51:23.654Z,3.70
2018-12-25T15:53:52.988Z,3.70
2018-12-25T15:56:22.344Z,3.70
2018-12-25T15:58:51.695Z,3.70
2018-12-25T16:01:21.040Z,3.70
2018-12-25T16:03:50.396Z,3.60
2018-12-25T16:06:19.769Z,3.60
2018-12-25T16:08:49.180Z,3.60
2018-12-25T16:11:18.620Z,3.50
2018-12-25T16:13:48.040Z,3.50
2018-12-25T16:16:17.438Z,3.50
2018-12-25T16:18:46.825Z,3.50
2018-12-25T16:21:16.205Z,3.50
2018-12-25T16:23:45.957Z,3.50
2018-12-25T16:26:15.445Z,3.50
2018-12-25T16:28:44.888Z,3.50
2018-12-25T16:31:14.251Z,3.50
2018-12-25T16:33:43.664Z,3.50
2018-12-25T16:36:13.048Z,3.50
2018-12-25T16:38:42.433Z,3.50
2018-12-25T16:41:11.905Z,3.50
2018-12-25T16:43:41.369Z,3.50
2018-12-25T16:46:10.742Z,3.50
2018-12-25T16:48:40.163Z,3.50
2018-12-25T16:51:09.558Z,3.50
2018-12-25T16:53:38.894Z,3.50
2018-12-25T16:56:08.304Z,3.40
2018-12-25T16:58:37.672Z,3.40
2018-12-25T17:01:07.118Z,3.40
2018-12-25T17:03:36.446Z,3.40
2018-12-25T17:06:05.836Z,3.40
2018-12-25T17:08:35.231Z,3.40
2018-12-25T17:11:04.733Z,3.40
2018-12-25T17:13:35.040Z,3.40
2018-12-25T17:16:04.516Z,3.40
2018-12-25T17:18:33.905Z,3.40
2018-12-25T17:21:03.422Z,3.40
2018-12-25T17:23:32.903Z,3.40
2018-12-25T17:26:02.284Z,3.40
2018-12-25T17:28:31.889Z,3.40
2018-12-25T17:31:01.247Z,3.40
2018-12-25T17:33:30.628Z,3.40
2018-12-25T17:35:59.980Z,3.40
2018-12-25T17:38:29.742Z,3.40
2018-12-25T17:40:59.079Z,3.40
2018-12-25T17:43:28.448Z,3.40
2018-12-25T17:45:57.850Z,3.40
2018-12-25T17:48:27.191Z,3.40
2018-12-25T17:50:56.541Z,3.40
2018-12-25T17:53:25.904Z,3.40
2018-12-25T17:55:55.252Z,3.40
2018-12-25T17:58:25.000Z,3.40
2018-12-25T18:00:54.378Z,3.40
2018-12-25T18:03:23.741Z,3.40
2018-12-25T18:05:53.179Z,3.30
2018-12-25T18:08:22.604Z,3.30
2018-12-25T18:10:52.014Z,3.30
2018-12-25T18:13:21.394Z,3.30
2018-12-25T18:15:50.745Z,3.20
2018-12-25T18:18:20.095Z,3.20
2018-12-25T18:20:49.450Z,3.20
2018-12-25T18:23:18.800Z,3.20
2018-12-25T18:25:50.980Z,3.10
2018-12-25T18:28:20.601Z,3.10
2018-12-25T18:30:49.951Z,3.10
2018-12-25T18:33:19.319Z,3.10
2018-12-25T18:35:48.764Z,3.10
2018-12-25T18:38:18.133Z,3.10
2018-12-25T18:40:47.574Z,3.10
2018-12-25T18:43:16.934Z,3.10
2018-12-25T18:45:46.406Z,3.10
2018-12-25T18:48:15.835Z,3.10
2018-12-25T18:50:45.278Z,3.10
2018-12-25T18:53:14.750Z,3.10
2018-12-25T18:55:44.135Z,3.10
2018-12-25T18:58:13.603Z,3.10
2018-12-25T19:00:43.023Z,3.10
2018-12-25T19:03:12.439Z,3.10
2018-12-25T19:05:41.817Z,3.10
2018-12-25T19:08:11.153Z,3.10
2018-12-25T19:10:40.572Z,3.00
2018-12-25T19:13:09.970Z,2.90
2018-12-25T19:15:39.319Z,2.80
2018-12-25T19:18:08.754Z,2.70
2018-12-25T19:20:38.125Z,2.70
2018-12-25T19:23:07.548Z,2.60
2018-12-25T19:25:36.892Z,2.60
2018-12-25T19:28:06.237Z,2.60
2018-12-25T19:30:35.575Z,2.50
2018-12-25T19:33:04.924Z,2.50
2018-12-25T19:35:34.276Z,2.50
2018-12-25T19:38:03.694Z,2.40
2018-12-25T19:40:33.047Z,2.40
2018-12-25T19:43:02.594Z,2.30
2018-12-25T19:45:32.612Z,2.40
2018-12-25T19:48:01.972Z,2.30
2018-12-25T19:50:31.314Z,2.30
2018-12-25T19:53:00.649Z,2.30
2018-12-25T19:55:30.006Z,2.20
2018-12-25T19:57:59.414Z,2.20
2018-12-25T20:00:28.917Z,2.20
2018-12-25T20:03:00.694Z,2.20
2018-12-25T20:05:33.293Z,2.20
2018-12-25T20:08:38.189Z,2.20
2018-12-25T20:11:27.535Z,2.20
2018-12-25T20:14:05.973Z,2.30
2018-12-25T20:16:54.975Z,2.30
2018-12-25T20:19:36.211Z,2.30
2018-12-25T20:22:20.563Z,2.30
2018-12-25T20:25:02.041Z,2.30
2018-12-25T20:27:37.164Z,2.20
2018-12-25T20:30:15.538Z,2.20
2018-12-25T20:32:50.969Z,2.20
2018-12-25T20:35:29.549Z,2.10
2018-12-25T20:38:08.370Z,2.10
2018-12-25T20:41:03.541Z,2.10
2018-12-25T20:43:57.261Z,2.20
2018-12-25T20:46:38.967Z,2.20
2018-12-25T20:49:43.581Z,2.20
2018-12-25T20:52:25.177Z,2.20
2018-12-25T20:55:01.478Z,2.10
2018-12-25T20:57:55.836Z,2.10
2018-12-25T21:00:53.171Z,2.10
2018-12-25T21:03:49.941Z,2.10
2018-12-25T21:06:51.304Z,2.00
2018-12-25T21:09:26.819Z,2.00
2018-12-25T21:12:20.312Z,1.90
2018-12-25T21:15:10.809Z,1.90
2018-12-25T21:18:04.902Z,2.00
2018-12-25T21:20:40.247Z,2.00
2018-12-25T21:23:46.039Z,2.00
2018-12-25T21:29:03.694Z,2.00
2018-12-25T21:31:33.245Z,2.10
2018-12-25T21:34:02.668Z,2.00
2018-12-25T21:36:32.233Z,2.00
2018-12-25T21:39:01.651Z,2.00
2018-12-25T21:41:31.360Z,2.00
2018-12-25T21:44:00.823Z,2.00
2018-12-25T21:46:31.152Z,2.00
2018-12-25T21:51:41.422Z,1.90
2018-12-25T21:54:10.842Z,1.90
2018-12-25T21:56:40.339Z,1.90
2018-12-25T21:59:09.900Z,1.90
2018-12-25T22:01:39.487Z,1.90
2018-12-25T22:04:08.959Z,1.90
2018-12-25T22:06:39.071Z,1.90
2018-12-25T22:09:08.719Z,1.80
2018-12-25T22:11:38.269Z,1.80
2018-12-25T22:14:07.689Z,1.80
2018-12-25T22:16:37.204Z,1.80
2018-12-25T22:19:06.837Z,1.80
2018-12-25T22:21:36.260Z,1.70
2018-12-25T22:24:05.954Z,1.70
2018-12-25T22:26:35.517Z,1.70
2018-12-25T22:29:05.144Z,1.70
2018-12-25T22:31:35.310Z,1.70
2018-12-25T22:34:05.540Z,1.70
2018-12-25T22:41:34.876Z,1.90
2018-12-25T22:44:04.615Z,1.80
2018-12-25T22:46:34.009Z,1.80
2018-12-25T22:49:03.457Z,1.80
2018-12-25T22:51:33.057Z,1.70
2018-12-25T22:54:02.487Z,1.70
2018-12-25T22:56:31.919Z,1.80
2018-12-25T22:59:01.313Z,1.80
2018-12-25T23:01:30.735Z,1.80
2018-12-25T23:04:00.239Z,1.80
2018-12-25T23:06:29.617Z,1.80
2018-12-25T23:08:59.000Z,1.70
2018-12-25T23:11:28.524Z,1.70
2018-12-25T23:13:58.148Z,1.70
2018-12-25T23:16:27.667Z,1.70
2018-12-25T23:18:57.132Z,1.70
2018-12-25T23:21:26.486Z,1.70
2018-12-25T23:23:55.914Z,1.80
2018-12-25T23:26:25.264Z,1.80
2018-12-25T23:28:54.872Z,1.80
2018-12-25T23:31:24.327Z,1.90
2018-12-25T23:33:53.658Z,1.90
2018-12-25T23:36:23.110Z,1.90
2018-12-25T23:38:53.266Z,1.90
2018-12-25T23:46:20.748Z,2.20
2018-12-25T23:48:50.294Z,2.10
2018-12-25T23:56:18.116Z,2.20
2018-12-25T23:58:47.463Z,2.20
